Time;durP1;ratioP1;P1;durP2;ratioP2;P2;SDS_P1;SDS_P2;PMS_P1;PMS_P2;Temp;Humidity;BMP_temperature;BMP_pressure;BME280_temperature;BME280_humidity;BME280_pressure;Samples;Min_cycle;Max_cycle;Signal;HPM_P1;HPM_P2
2022/02/06 00:00:02;;;;;;;47.63;41.50;;;;;;;;;;5014887;28;20020;-60
2022/02/06 00:02:32;;;;;;;34.58;27.58;;;;;;;;;;5014429;28;20604;-60
2022/02/06 00:04:58;;;;;;;33.00;23.80;;;;;;;;;;5020331;28;20036;-60
2022/02/06 00:07:23;;;;;;;34.78;24.80;;;;;;;;;;5017377;28;20022;-60
2022/02/06 00:09:48;;;;;;;40.05;23.77;;;;;;;;;;5016226;28;20117;-60
2022/02/06 00:12:14;;;;;;;25.73;21.85;;;;;;;;;;5015135;28;20057;-60
2022/02/06 00:14:40;;;;;;;42.88;23.90;;;;;;;;;;5017101;28;20022;-60
2022/02/06 00:17:09;;;;;;;40.10;28.67;;;;;;;;;;5013753;28;20032;-60
2022/02/06 00:19:34;;;;;;;62.45;33.90;;;;;;;;;;5013195;28;20037;-60
2022/02/06 00:22:02;;;;;;;54.15;33.17;;;;;;;;;;5011877;28;20022;-60
2022/02/06 00:24:57;;;;;;;35.38;24.52;;;;;;;;;;5017240;28;20014;-60
2022/02/06 00:27:26;;;;;;;43.45;23.58;;;;;;;;;;5016126;28;20048;-60
2022/02/06 00:30:02;;;;;;;32.05;24.10;;;;;;;;;;5016915;28;20135;-59
2022/02/06 00:32:44;;;;;;;31.88;16.52;;;;;;;;;;5016716;28;20507;-60
2022/02/06 00:38:11;;;;;;;19.27;12.82;;;;;;;;;;5015214;28;19913;-60
2022/02/06 00:43:21;;;;;;;19.55;15.45;;;;;;;;;;5015182;28;20025;-60
2022/02/06 00:45:46;;;;;;;18.23;12.70;;;;;;;;;;5015208;28;20022;-57
2022/02/06 00:48:19;;;;;;;20.25;16.17;;;;;;;;;;5010767;28;20054;-57
2022/02/06 00:50:48;;;;;;;21.30;16.00;;;;;;;;;;5013919;28;20060;-57
2022/02/06 00:53:16;;;;;;;18.05;15.73;;;;;;;;;;5017028;28;20068;-57
2022/02/06 00:55:42;;;;;;;20.90;14.10;;;;;;;;;;5017289;28;20049;-57
2022/02/06 00:58:08;;;;;;;15.23;11.70;;;;;;;;;;5014594;28;20013;-58
2022/02/06 01:00:33;;;;;;;9.63;8.38;;;;;;;;;;5011067;28;20424;-57
2022/02/06 01:02:58;;;;;;;11.05;8.25;;;;;;;;;;5014296;28;20467;-57
2022/02/06 01:05:24;;;;;;;17.92;10.43;;;;;;;;;;5014341;28;20022;-57
2022/02/06 01:07:51;;;;;;;16.95;12.23;;;;;;;;;;5013151;28;20075;-57
2022/02/06 01:10:16;;;;;;;28.27;25.25;;;;;;;;;;5015736;28;20047;-59
2022/02/06 01:12:47;;;;;;;36.33;29.48;;;;;;;;;;5015551;28;20510;-59
2022/02/06 01:15:17;;;;;;;28.13;25.03;;;;;;;;;;5015168;28;20439;-59
2022/02/06 01:17:50;;;;;;;23.85;21.63;;;;;;;;;;5018226;28;20025;-59
2022/02/06 01:20:23;;;;;;;18.27;15.18;;;;;;;;;;5014130;28;20059;-59
2022/02/06 01:23:00;;;;;;;18.60;11.40;;;;;;;;;;5013985;28;20470;-59
2022/02/06 01:25:34;;;;;;;20.52;14.98;;;;;;;;;;5013884;28;20080;-59
2022/02/06 01:28:10;;;;;;;24.08;17.65;;;;;;;;;;5017468;28;20025;-59
2022/02/06 01:30:52;;;;;;;23.40;18.60;;;;;;;;;;5014226;28;20060;-59
2022/02/06 01:33:25;;;;;;;;;;;;;;;;;;5015268;28;20030;-59
2022/02/06 01:38:25;;;;;;;19.77;15.15;;;;;;;;;;5014646;28;20497;-59
2022/02/06 01:41:05;;;;;;;18.83;16.80;;;;;;;;;;5015728;28;20029;-58
2022/02/06 01:43:41;;;;;;;21.25;16.27;;;;;;;;;;5014149;28;20108;-58
2022/02/06 02:21:47;;;;;;;61.92;27.88;;;;;;;;;;5017364;28;20051;-59
2022/02/06 02:24:23;;;;;;;29.42;21.55;;;;;;;;;;5014897;28;20099;-59
2022/02/06 02:47:36;;;;;;;36.50;18.75;;;;;;;;;;5016553;28;20664;-60
2022/02/06 02:50:09;;;;;;;26.95;19.23;;;;;;;;;;5016224;28;20060;-60
2022/02/06 03:03:15;;;;;;;17.95;15.82;;;;;;;;;;5018792;28;20132;-60
2022/02/06 03:05:42;;;;;;;27.35;16.27;;;;;;;;;;5018014;28;20032;-60
2022/02/06 03:08:09;;;;;;;26.85;15.90;;;;;;;;;;5017976;28;20233;-60
2022/02/06 03:10:35;;;;;;;36.63;17.42;;;;;;;;;;5017220;28;20029;-60
2022/02/06 03:13:04;;;;;;;22.88;17.75;;;;;;;;;;5018436;28;20544;-60
2022/02/06 03:15:43;;;;;;;16.85;15.07;;;;;;;;;;5015369;28;20053;-60
2022/02/06 03:18:15;;;;;;;26.42;16.42;;;;;;;;;;5015189;28;20064;-60
2022/02/06 03:20:41;;;;;;;20.02;15.82;;;;;;;;;;5017371;28;20032;-60
2022/02/06 03:23:07;;;;;;;15.35;13.75;;;;;;;;;;5016533;28;20017;-60
2022/02/06 03:25:36;;;;;;;16.35;14.18;;;;;;;;;;5017343;28;20108;-60
2022/02/06 03:28:02;;;;;;;14.73;12.57;;;;;;;;;;5017931;28;20080;-60
2022/02/06 03:30:29;;;;;;;12.68;10.18;;;;;;;;;;5015250;28;20022;-60
2022/02/06 03:32:55;;;;;;;9.80;8.10;;;;;;;;;;5014624;28;20108;-60
2022/02/06 03:35:21;;;;;;;10.40;9.10;;;;;;;;;;5015284;28;20313;-60
2022/02/06 03:37:46;;;;;;;16.60;11.07;;;;;;;;;;5018117;28;20490;-61
2022/02/06 03:40:20;;;;;;;12.20;9.25;;;;;;;;;;5016053;28;20040;-61
2022/02/06 03:42:57;;;;;;;9.35;8.13;;;;;;;;;;5014959;28;20026;-61
2022/02/06 03:45:25;;;;;;;9.98;8.98;;;;;;;;;;5017328;28;20486;-61
2022/02/06 03:47:57;;;;;;;13.05;9.55;;;;;;;;;;5012808;28;20061;-61
2022/02/06 03:50:32;;;;;;;10.70;7.32;;;;;;;;;;5014819;28;20064;-61
2022/02/06 03:52:57;;;;;;;11.27;6.10;;;;;;;;;;5014335;28;20552;-61
2022/02/06 03:55:22;;;;;;;8.02;5.97;;;;;;;;;;5016548;28;20029;-61
2022/02/06 03:57:49;;;;;;;9.27;6.85;;;;;;;;;;5015831;28;20018;-61
2022/02/06 04:00:15;;;;;;;9.00;6.47;;;;;;;;;;5019252;28;20448;-61
2022/02/06 04:02:40;;;;;;;7.22;5.80;;;;;;;;;;5018173;28;20021;-61
2022/02/06 04:05:06;;;;;;;10.27;8.32;;;;;;;;;;5014105;28;20446;-60
2022/02/06 04:07:31;;;;;;;8.50;6.90;;;;;;;;;;5016646;28;20394;-60
2022/02/06 04:09:58;;;;;;;9.43;8.10;;;;;;;;;;5019665;28;20029;-60
2022/02/06 04:12:24;;;;;;;14.35;9.75;;;;;;;;;;5018223;28;20030;-60
2022/02/06 04:17:24;;;;;;;9.35;7.65;;;;;;;;;;5017826;28;20029;-60
2022/02/06 04:19:51;;;;;;;12.85;11.07;;;;;;;;;;5015768;28;20022;-60
2022/02/06 04:22:17;;;;;;;12.18;9.73;;;;;;;;;;5015105;28;20026;-60
2022/02/06 04:24:42;;;;;;;8.20;7.25;;;;;;;;;;5015678;28;20014;-61
2022/02/06 04:27:07;;;;;;;8.45;7.18;;;;;;;;;;5014740;28;20636;-61
2022/02/06 04:29:33;;;;;;;8.23;7.43;;;;;;;;;;5018458;28;20564;-60
2022/02/06 04:31:59;;;;;;;9.27;7.38;;;;;;;;;;5018526;28;20076;-60
2022/02/06 04:34:25;;;;;;;12.15;6.30;;;;;;;;;;5013843;28;20022;-61
2022/02/06 04:40:02;;;;;;;8.18;5.90;;;;;;;;;;5014663;28;20079;-61
2022/02/06 05:32:23;;;;;;;13.50;10.45;;;;;;;;;;5015303;28;20121;-61
2022/02/06 05:34:48;;;;;;;13.95;12.05;;;;;;;;;;5013009;28;20410;-61
2022/02/06 05:37:14;;;;;;;17.13;12.57;;;;;;;;;;5016111;28;20041;-61
2022/02/06 05:39:39;;;;;;;17.92;12.25;;;;;;;;;;5014554;28;20486;-61
2022/02/06 05:42:04;;;;;;;13.73;12.38;;;;;;;;;;5012652;28;20653;-61
2022/02/06 05:44:30;;;;;;;15.63;12.10;;;;;;;;;;5015596;28;20448;-61
2022/02/06 05:46:55;;;;;;;14.68;12.65;;;;;;;;;;5014888;28;20013;-61
2022/02/06 05:49:21;;;;;;;16.88;10.45;;;;;;;;;;5011488;28;20627;-61
2022/02/06 05:51:47;;;;;;;15.70;11.73;;;;;;;;;;5013500;28;20164;-61
2022/02/06 05:54:13;;;;;;;28.60;21.55;;;;;;;;;;5013707;28;20131;-61
2022/02/06 05:56:38;;;;;;;58.00;35.58;;;;;;;;;;5012697;28;20475;-60
2022/02/06 05:59:04;;;;;;;41.88;30.65;;;;;;;;;;5012920;28;20389;-61
2022/02/06 06:01:29;;;;;;;44.83;29.30;;;;;;;;;;5013638;28;20368;-61
2022/02/06 06:03:55;;;;;;;34.00;23.63;;;;;;;;;;5014111;28;20394;-61
2022/02/06 06:06:20;;;;;;;30.88;18.02;;;;;;;;;;5013551;28;20034;-60
2022/02/06 06:08:45;;;;;;;23.17;15.73;;;;;;;;;;5014389;28;20029;-61
2022/02/06 06:11:11;;;;;;;15.40;12.07;;;;;;;;;;5014656;28;20028;-61
2022/02/06 06:13:36;;;;;;;13.48;9.38;;;;;;;;;;5016092;28;20474;-61
2022/02/06 06:16:04;;;;;;;14.13;7.07;;;;;;;;;;5011582;28;20030;-61
2022/02/06 06:18:29;;;;;;;15.88;7.25;;;;;;;;;;5013262;28;20022;-61
2022/02/06 06:20:54;;;;;;;7.45;5.03;;;;;;;;;;5011530;28;20087;-60
2022/02/06 06:23:23;;;;;;;6.53;4.93;;;;;;;;;;5013494;28;20025;-61
2022/02/06 06:25:50;;;;;;;8.90;5.38;;;;;;;;;;5011850;28;20093;-61
2022/02/06 06:28:15;;;;;;;15.38;7.75;;;;;;;;;;5014453;28;20025;-61
2022/02/06 06:30:41;;;;;;;13.40;8.77;;;;;;;;;;5012023;28;20744;-61
2022/02/06 06:33:06;;;;;;;17.08;10.75;;;;;;;;;;5016582;28;20045;-61
2022/02/06 06:35:32;;;;;;;10.75;8.88;;;;;;;;;;5012709;28;20029;-61
2022/02/06 06:37:59;;;;;;;12.57;9.38;;;;;;;;;;5014115;28;20091;-61
2022/02/06 06:40:25;;;;;;;16.80;10.93;;;;;;;;;;5013426;28;20166;-61
2022/02/06 06:42:51;;;;;;;15.55;10.38;;;;;;;;;;5012098;28;20474;-61
2022/02/06 06:45:16;;;;;;;17.52;11.27;;;;;;;;;;5013423;28;20026;-60
2022/02/06 06:47:48;;;;;;;13.52;10.90;;;;;;;;;;5017667;28;20085;-60
2022/02/06 06:50:13;;;;;;;16.13;10.90;;;;;;;;;;5013880;28;20030;-61
2022/02/06 06:52:39;;;;;;;12.30;9.05;;;;;;;;;;5014911;28;20144;-61
2022/02/06 06:55:05;;;;;;;28.35;16.02;;;;;;;;;;5015205;28;20108;-60
2022/02/06 06:57:41;;;;;;;26.83;13.98;;;;;;;;;;5015200;28;20025;-60
2022/02/06 07:02:32;;;;;;;27.52;15.73;;;;;;;;;;5019864;28;20474;-60
2022/02/06 07:05:05;;;;;;;33.13;16.25;;;;;;;;;;5015907;28;20544;-60
2022/02/06 07:07:31;;;;;;;19.40;10.38;;;;;;;;;;5017549;28;20032;-60
2022/02/06 07:09:57;;;;;;;11.73;9.48;;;;;;;;;;5012767;28;20482;-60
2022/02/06 07:12:23;;;;;;;13.73;9.25;;;;;;;;;;5016634;28;20470;-60
2022/02/06 07:14:49;;;;;;;10.25;7.30;;;;;;;;;;5014303;28;20029;-60
2022/02/06 07:17:14;;;;;;;13.73;10.65;;;;;;;;;;5014986;28;20065;-60
2022/02/06 07:19:40;;;;;;;12.43;9.02;;;;;;;;;;5017211;28;20521;-60
2022/02/06 07:22:08;;;;;;;9.68;8.50;;;;;;;;;;5015905;28;20017;-60
2022/02/06 07:24:34;;;;;;;12.45;9.52;;;;;;;;;;5014885;28;20042;-60
2022/02/06 07:27:02;;;;;;;14.05;11.93;;;;;;;;;;5018952;28;20025;-60
2022/02/06 07:29:28;;;;;;;19.38;10.45;;;;;;;;;;5016021;28;20057;-60
2022/02/06 07:31:55;;;;;;;12.50;10.20;;;;;;;;;;5010654;28;20573;-60
2022/02/06 07:34:20;;;;;;;12.30;10.85;;;;;;;;;;5013416;28;20741;-60
2022/02/06 07:36:46;;;;;;;12.93;10.32;;;;;;;;;;5011200;28;20033;-60
2022/02/06 07:39:11;;;;;;;14.55;8.63;;;;;;;;;;5012531;28;20093;-60
2022/02/06 07:41:36;;;;;;;17.38;10.05;;;;;;;;;;5011420;28;20469;-60
2022/02/06 07:44:02;;;;;;;26.08;10.77;;;;;;;;;;5013550;28;20506;-60
2022/02/06 07:46:34;;;;;;;16.10;12.05;;;;;;;;;;5014554;28;20122;-60
2022/02/06 07:49:02;;;;;;;17.42;15.07;;;;;;;;;;5013969;28;20060;-60
2022/02/06 07:51:27;;;;;;;29.40;23.55;;;;;;;;;;5012153;28;20049;-59
2022/02/06 07:53:53;;;;;;;36.88;28.13;;;;;;;;;;5010952;28;20169;-59
2022/02/06 07:56:18;;;;;;;49.55;36.78;;;;;;;;;;5014967;28;20442;-60
2022/02/06 07:58:43;;;;;;;54.38;35.90;;;;;;;;;;5012840;28;20498;-59
2022/02/06 08:01:09;;;;;;;33.10;29.13;;;;;;;;;;5013321;28;20033;-60
2022/02/06 08:03:34;;;;;;;32.85;25.85;;;;;;;;;;5014352;28;20095;-60
2022/02/06 08:05:59;;;;;;;33.42;20.70;;;;;;;;;;5011777;28;20399;-60
2022/02/06 08:08:24;;;;;;;21.75;17.67;;;;;;;;;;5010335;28;20033;-60
2022/02/06 08:10:50;;;;;;;31.23;22.08;;;;;;;;;;5011875;28;20018;-60
2022/02/06 08:13:26;;;;;;;23.67;19.50;;;;;;;;;;5010263;28;20449;-60
2022/02/06 08:15:51;;;;;;;19.63;13.63;;;;;;;;;;5012635;28;20029;-60
2022/02/06 08:18:17;;;;;;;22.30;12.48;;;;;;;;;;5010573;28;20103;-60
2022/02/06 08:20:42;;;;;;;16.17;12.45;;;;;;;;;;5011585;28;20047;-60
2022/02/06 08:23:08;;;;;;;17.50;15.52;;;;;;;;;;5011012;28;20024;-59
2022/02/06 08:25:33;;;;;;;26.17;16.23;;;;;;;;;;5013859;28;20030;-59
2022/02/06 08:27:59;;;;;;;17.98;15.07;;;;;;;;;;5010134;28;20014;-60
2022/02/06 08:30:24;;;;;;;23.50;18.63;;;;;;;;;;5012671;28;20032;-60
2022/02/06 08:32:50;;;;;;;36.22;25.20;;;;;;;;;;5011242;28;20689;-60
2022/02/06 08:35:15;;;;;;;41.22;30.35;;;;;;;;;;5011570;28;20036;-59
2022/02/06 08:37:41;;;;;;;35.85;28.23;;;;;;;;;;5008713;28;20107;-60
2022/02/06 08:40:12;;;;;;;46.33;30.20;;;;;;;;;;5007739;28;20717;-60
2022/02/06 08:42:38;;;;;;;35.80;25.83;;;;;;;;;;5009699;28;20017;-61
2022/02/06 08:45:04;;;;;;;21.98;18.13;;;;;;;;;;5012145;28;20040;-61
2022/02/06 08:47:30;;;;;;;21.50;19.13;;;;;;;;;;5013127;28;20635;-60
2022/02/06 08:49:56;;;;;;;25.55;16.90;;;;;;;;;;5014410;28;20120;-60
2022/02/06 08:52:21;;;;;;;16.88;12.77;;;;;;;;;;5013513;28;20029;-41
2022/02/06 08:54:47;;;;;;;13.63;12.07;;;;;;;;;;5010825;28;20498;-42
2022/02/06 08:57:17;;;;;;;14.88;12.75;;;;;;;;;;5011594;28;20626;-42
2022/02/06 08:59:42;;;;;;;20.70;15.40;;;;;;;;;;5015513;28;20022;-46
2022/02/06 09:02:08;;;;;;;23.88;21.08;;;;;;;;;;5017490;28;20634;-46
2022/02/06 09:04:33;;;;;;;42.25;28.48;;;;;;;;;;5011205;28;20026;-43
2022/02/06 09:07:01;;;;;;;37.30;29.75;;;;;;;;;;5011361;28;20084;-46
2022/02/06 09:09:27;;;;;;;44.97;34.65;;;;;;;;;;5009490;28;20045;-42
2022/02/06 09:11:52;;;;;;;49.15;29.30;;;;;;;;;;5012023;28;20021;-44
2022/02/06 09:14:23;;;;;;;23.02;20.58;;;;;;;;;;5011450;28;20037;-42
2022/02/06 09:16:48;;;;;;;15.85;13.73;;;;;;;;;;5010577;28;20087;-42
2022/02/06 09:19:14;;;;;;;21.50;17.85;;;;;;;;;;5012225;28;20030;-41
2022/02/06 09:21:40;;;;;;;21.52;17.95;;;;;;;;;;5012497;28;20017;-44
2022/02/06 09:24:05;;;;;;;20.55;8.43;;;;;;;;;;5012716;28;20022;-45
2022/02/06 09:26:31;;;;;;;17.73;12.68;;;;;;;;;;5012314;28;20120;-46
2022/02/06 09:28:56;;;;;;;13.35;10.15;;;;;;;;;;5008330;28;20447;-46
2022/02/06 09:31:25;;;;;;;13.20;9.10;;;;;;;;;;5013012;28;20115;-45
2022/02/06 09:36:16;;;;;;;8.57;5.22;;;;;;;;;;5008478;28;20029;-50
2022/02/06 09:38:41;;;;;;;6.35;4.80;;;;;;;;;;5011491;28;20022;-47
2022/02/06 09:41:06;;;;;;;15.35;4.05;;;;;;;;;;5012615;28;20111;-48
2022/02/06 09:43:32;;;;;;;4.95;2.53;;;;;;;;;;5012948;28;20017;-49
2022/02/06 09:45:59;;;;;;;3.92;2.08;;;;;;;;;;5010764;28;20021;-44
2022/02/06 09:48:26;;;;;;;14.05;4.10;;;;;;;;;;5011285;28;20081;-43
2022/02/06 09:50:52;;;;;;;6.85;2.22;;;;;;;;;;5011320;28;20037;-41
2022/02/06 09:53:17;;;;;;;5.22;3.20;;;;;;;;;;5015695;28;20026;-44
2022/02/06 09:55:45;;;;;;;4.60;3.17;;;;;;;;;;5015392;28;20029;-43
2022/02/06 09:58:56;;;;;;;10.55;4.70;;;;;;;;;;5012155;28;20037;-48
2022/02/06 10:01:03;;;;;;;7.53;4.82;;;;;;;;;;5011051;28;20026;-47
2022/02/06 10:03:30;;;;;;;7.22;4.32;;;;;;;;;;5015743;28;20033;-49
2022/02/06 10:05:57;;;;;;;8.18;5.40;;;;;;;;;;5011980;28;20013;-44
2022/02/06 10:08:30;;;;;;;6.80;4.95;;;;;;;;;;5011872;28;20044;-47
2022/02/06 10:10:55;;;;;;;5.30;4.57;;;;;;;;;;5013920;28;20025;-45
2022/02/06 10:13:21;;;;;;;6.47;4.35;;;;;;;;;;5013292;28;20032;-47
2022/02/06 10:15:46;;;;;;;5.00;3.67;;;;;;;;;;5012619;28;20060;-45
2022/02/06 10:18:11;;;;;;;5.70;5.20;;;;;;;;;;5011475;28;20647;-45
2022/02/06 10:20:48;;;;;;;9.25;7.10;;;;;;;;;;5011380;28;20018;-47
2022/02/06 10:23:26;;;;;;;7.88;6.53;;;;;;;;;;5010795;28;20018;-45
2022/02/06 10:25:54;;;;;;;16.45;7.25;;;;;;;;;;5015064;28;20061;-45
2022/02/06 10:30:51;;;;;;;7.38;4.35;;;;;;;;;;5013316;28;20037;-45
2022/02/06 10:33:19;;;;;;;7.60;5.28;;;;;;;;;;5015265;28;20026;-43
2022/02/06 10:35:46;;;;;;;9.75;6.82;;;;;;;;;;5015400;28;20530;-44
2022/02/06 10:38:19;;;;;;;7.63;4.82;;;;;;;;;;5019704;28;20047;-44
2022/02/06 10:40:45;;;;;;;9.40;3.47;;;;;;;;;;5018423;28;20022;-47
2022/02/06 10:43:11;;;;;;;18.90;6.03;;;;;;;;;;5015831;28;20025;-44
2022/02/06 10:45:38;;;;;;;16.15;10.23;;;;;;;;;;5010176;28;20710;-46
2022/02/06 10:48:04;;;;;;;6.43;5.25;;;;;;;;;;5015661;28;20128;-44
2022/02/06 10:50:30;;;;;;;6.80;5.70;;;;;;;;;;5012308;28;20080;-45
2022/02/06 10:53:09;;;;;;;7.00;3.25;;;;;;;;;;5019262;28;20022;-45
2022/02/06 10:55:34;;;;;;;6.10;3.83;;;;;;;;;;5016769;28;20037;-47
2022/02/06 10:58:00;;;;;;;10.65;7.10;;;;;;;;;;5013680;28;20028;-45
2022/02/06 11:00:30;;;;;;;24.48;11.80;;;;;;;;;;5014024;28;20541;-45
2022/02/06 11:03:09;;;;;;;12.68;7.03;;;;;;;;;;5015492;28;20021;-46
2022/02/06 11:05:46;;;;;;;10.45;6.80;;;;;;;;;;5012828;28;20111;-44
2022/02/06 11:08:11;;;;;;;18.05;9.40;;;;;;;;;;5012746;28;20029;-43
2022/02/06 11:10:36;;;;;;;8.95;4.07;;;;;;;;;;5012727;28;20028;-44
2022/02/06 11:13:03;;;;;;;6.90;3.78;;;;;;;;;;5012198;28;20113;-49
2022/02/06 11:15:31;;;;;;;5.75;3.85;;;;;;;;;;5012581;28;20025;-45
2022/02/06 11:18:04;;;;;;;9.90;4.20;;;;;;;;;;5015553;28;20049;-46
2022/02/06 11:20:29;;;;;;;8.23;4.05;;;;;;;;;;5017612;28;20021;-46
2022/02/06 11:22:58;;;;;;;9.45;3.30;;;;;;;;;;5009928;28;20577;-46
2022/02/06 11:25:32;;;;;;;8.68;2.88;;;;;;;;;;5010628;28;20658;-45
2022/02/06 11:27:58;;;;;;;4.25;2.15;;;;;;;;;;5009724;28;20044;-44
2022/02/06 11:30:23;;;;;;;6.03;2.92;;;;;;;;;;5012952;28;20063;-46
2022/02/06 11:32:48;;;;;;;16.58;3.13;;;;;;;;;;5014473;28;20470;-46
2022/02/06 11:35:19;;;;;;;3.78;2.33;;;;;;;;;;5012657;28;20477;-48
2022/02/06 11:46:18;;;;;;;5.70;2.45;;;;;;;;;;5012248;28;20583;-45
2022/02/06 11:48:44;;;;;;;8.77;3.30;;;;;;;;;;5013256;28;20058;-47
2022/02/06 11:51:13;;;;;;;12.20;3.08;;;;;;;;;;5011549;28;20044;-46
2022/02/06 11:53:39;;;;;;;4.22;2.53;;;;;;;;;;5015591;28;20040;-44
2022/02/06 11:56:16;;;;;;;7.13;2.83;;;;;;;;;;5014625;28;20026;-49
2022/02/06 11:58:43;;;;;;;5.15;2.58;;;;;;;;;;5013330;28;20509;-45
2022/02/06 12:01:11;;;;;;;10.07;3.10;;;;;;;;;;5015851;28;20030;-43
2022/02/06 12:03:50;;;;;;;7.45;2.65;;;;;;;;;;5013868;28;20022;-45
2022/02/06 12:06:15;;;;;;;5.90;2.15;;;;;;;;;;5014241;28;20018;-50
2022/02/06 12:09:04;;;;;;;5.30;2.38;;;;;;;;;;5013397;28;20033;-49
2022/02/06 12:11:30;;;;;;;5.82;4.88;;;;;;;;;;5014793;28;20021;-44
2022/02/06 12:14:12;;;;;;;5.90;3.42;;;;;;;;;;5012203;28;20033;-45
2022/02/06 12:16:46;;;;;;;9.38;2.92;;;;;;;;;;5016837;28;20053;-47
2022/02/06 12:19:32;;;;;;;2.85;2.03;;;;;;;;;;5014655;28;20026;-46
2022/02/06 12:22:17;;;;;;;9.95;6.07;;;;;;;;;;5015068;28;20034;-43
2022/02/06 12:24:43;;;;;;;11.25;3.30;;;;;;;;;;5016692;28;20022;-44
2022/02/06 12:27:20;;;;;;;8.90;4.55;;;;;;;;;;5013767;28;20029;-42
2022/02/06 12:29:49;;;;;;;12.57;5.80;;;;;;;;;;5019523;28;20034;-47
2022/02/06 12:32:27;;;;;;;6.20;3.25;;;;;;;;;;5013586;28;20088;-46
2022/02/06 12:37:38;;;;;;;5.78;3.78;;;;;;;;;;5015484;28;20143;-42
2022/02/06 12:40:05;;;;;;;12.32;3.22;;;;;;;;;;5018271;28;20056;-46
2022/02/06 12:42:33;;;;;;;10.18;2.65;;;;;;;;;;5019657;28;20018;-46
2022/02/06 12:45:00;;;;;;;6.35;2.30;;;;;;;;;;5016578;28;20025;-46
2022/02/06 12:47:26;;;;;;;2.53;1.88;;;;;;;;;;5014851;28;20042;-43
2022/02/06 12:49:51;;;;;;;6.05;1.83;;;;;;;;;;5017687;28;20030;-45
2022/02/06 12:52:17;;;;;;;6.53;3.58;;;;;;;;;;5017784;28;20604;-46
2022/02/06 12:54:42;;;;;;;2.35;1.88;;;;;;;;;;5013819;28;20148;-44
2022/02/06 12:57:08;;;;;;;4.00;2.00;;;;;;;;;;5014740;28;20029;-44
2022/02/06 12:59:36;;;;;;;8.18;2.88;;;;;;;;;;5016751;28;20437;-49
2022/02/06 13:02:02;;;;;;;4.60;1.70;;;;;;;;;;5016277;28;20026;-49
2022/02/06 13:04:30;;;;;;;2.78;1.75;;;;;;;;;;5015994;28;20028;-48
2022/02/06 13:07:00;;;;;;;11.60;3.00;;;;;;;;;;5017308;28;20146;-44
2022/02/06 13:09:29;;;;;;;7.65;3.75;;;;;;;;;;5014747;28;20057;-47
2022/02/06 13:12:04;;;;;;;9.50;2.90;;;;;;;;;;5014707;28;20036;-42
2022/02/06 13:15:30;;;;;;;4.88;3.30;;;;;;;;;;5014792;28;20056;-43
2022/02/06 13:17:59;;;;;;;;;;;;;;;;;;5014993;28;20707;-43
2022/02/06 13:23:00;;;;;;;4.68;2.53;;;;;;;;;;5013897;28;20013;-44
2022/02/06 13:33:49;;;;;;;2.25;1.40;;;;;;;;;;5012605;28;20030;-42
2022/02/06 13:36:26;;;;;;;5.47;3.38;;;;;;;;;;5015270;28;20050;-45
2022/02/06 13:38:55;;;;;;;6.13;3.30;;;;;;;;;;5014439;28;20075;-43
2022/02/06 13:41:24;;;;;;;8.73;5.57;;;;;;;;;;5015885;28;20029;-47
2022/02/06 13:43:52;;;;;;;5.43;3.47;;;;;;;;;;5013664;28;20087;-44
2022/02/06 13:46:19;;;;;;;7.05;3.28;;;;;;;;;;5012425;28;20529;-48
2022/02/06 13:48:48;;;;;;;5.88;3.88;;;;;;;;;;5013242;28;20088;-42
2022/02/06 13:51:13;;;;;;;3.10;1.75;;;;;;;;;;5015947;28;20125;-44
2022/02/06 13:53:39;;;;;;;3.72;1.90;;;;;;;;;;5015441;28;20100;-42
2022/02/06 13:56:09;;;;;;;13.00;5.07;;;;;;;;;;5017289;28;20052;-43
2022/02/06 13:58:35;;;;;;;6.70;3.47;;;;;;;;;;5013310;28;20040;-47
2022/02/06 14:01:01;;;;;;;7.85;6.40;;;;;;;;;;5015504;28;20390;-44
2022/02/06 14:03:40;;;;;;;18.25;6.15;;;;;;;;;;5013273;28;20018;-42
2022/02/06 14:06:06;;;;;;;8.07;4.07;;;;;;;;;;5014907;28;20022;-44
2022/02/06 14:08:34;;;;;;;11.65;7.50;;;;;;;;;;5014937;28;20022;-43
2022/02/06 14:11:02;;;;;;;6.72;4.13;;;;;;;;;;5016483;28;20030;-44
2022/02/06 14:13:28;;;;;;;9.52;7.07;;;;;;;;;;5018629;28;20108;-48
2022/02/06 14:16:08;;;;;;;21.70;8.93;;;;;;;;;;5020143;28;20427;-45
2022/02/06 14:18:44;;;;;;;5.05;3.90;;;;;;;;;;5018428;28;20026;-44
2022/02/06 14:21:10;;;;;;;5.03;4.05;;;;;;;;;;5018591;28;20020;-46
2022/02/06 14:23:35;;;;;;;10.13;5.95;;;;;;;;;;5018148;28;20425;-44
2022/02/06 14:26:13;;;;;;;6.25;4.00;;;;;;;;;;5015616;28;20029;-42
2022/02/06 14:28:49;;;;;;;4.45;3.15;;;;;;;;;;5019776;28;20018;-44
2022/02/06 14:31:21;;;;;;;12.45;9.35;;;;;;;;;;5017317;28;20659;-44
2022/02/06 14:33:46;;;;;;;9.52;7.65;;;;;;;;;;5018740;28;20028;-43
2022/02/06 14:36:16;;;;;;;6.90;6.13;;;;;;;;;;5020025;28;20026;-47
2022/02/06 14:38:48;;;;;;;8.15;6.55;;;;;;;;;;5017835;28;20442;-48
2022/02/06 14:43:52;;;;;;;19.48;9.80;;;;;;;;;;5018596;28;20041;-46
2022/02/06 14:46:18;;;;;;;16.58;10.52;;;;;;;;;;5016296;28;20026;-46
2022/02/06 14:48:44;;;;;;;5.57;4.38;;;;;;;;;;5019392;28;20398;-43
2022/02/06 14:51:12;;;;;;;12.85;8.50;;;;;;;;;;5016538;28;20013;-46
2022/02/06 14:53:39;;;;;;;18.80;10.32;;;;;;;;;;5015850;28;20026;-45
2022/02/06 14:56:04;;;;;;;9.70;6.45;;;;;;;;;;5012957;28;20052;-42
2022/02/06 14:58:29;;;;;;;14.20;8.98;;;;;;;;;;5019438;28;20017;-41
2022/02/06 15:00:55;;;;;;;15.13;8.35;;;;;;;;;;5017898;28;20017;-42
2022/02/06 15:03:20;;;;;;;15.02;9.93;;;;;;;;;;5017727;28;20049;-42
2022/02/06 15:05:47;;;;;;;8.18;7.28;;;;;;;;;;5019050;28;20029;-45
2022/02/06 15:08:13;;;;;;;14.32;9.20;;;;;;;;;;5018613;28;20560;-46
2022/02/06 15:10:38;;;;;;;9.40;5.00;;;;;;;;;;5019025;28;20117;-45
2022/02/06 15:13:05;;;;;;;4.03;3.63;;;;;;;;;;5014102;28;20026;-43
2022/02/06 15:15:39;;;;;;;3.50;2.70;;;;;;;;;;5015022;28;20159;-46
2022/02/06 15:18:35;;;;;;;13.20;8.02;;;;;;;;;;5014122;28;20114;-44
2022/02/06 15:20:51;;;;;;;8.85;5.43;;;;;;;;;;5016290;28;20120;-44
2022/02/06 15:23:16;;;;;;;9.57;8.18;;;;;;;;;;5014310;28;20025;-45
2022/02/06 15:25:42;;;;;;;10.32;7.35;;;;;;;;;;5013806;28;20026;-44
2022/02/06 15:28:08;;;;;;;13.02;7.72;;;;;;;;;;5014370;28;20026;-41
2022/02/06 15:30:33;;;;;;;12.15;7.45;;;;;;;;;;5014347;28;20553;-44
2022/02/06 15:32:59;;;;;;;11.80;5.80;;;;;;;;;;5017577;28;20113;-42
2022/02/06 15:35:24;;;;;;;10.93;7.50;;;;;;;;;;5014387;28;20025;-44
2022/02/06 15:37:49;;;;;;;14.38;6.25;;;;;;;;;;5011539;28;20022;-45
2022/02/06 15:40:21;;;;;;;5.57;4.72;;;;;;;;;;5015266;28;20570;-42
2022/02/06 15:42:46;;;;;;;10.13;7.03;;;;;;;;;;5014642;28;20033;-49
2022/02/06 15:45:12;;;;;;;10.50;4.90;;;;;;;;;;5015085;28;20022;-48
2022/02/06 15:47:38;;;;;;;13.25;8.98;;;;;;;;;;5014408;28;20601;-45
2022/02/06 15:50:06;;;;;;;9.63;7.88;;;;;;;;;;5015760;28;20057;-43
2022/02/06 15:52:31;;;;;;;16.25;10.43;;;;;;;;;;5016916;28;20021;-47
2022/02/06 15:54:57;;;;;;;15.55;11.07;;;;;;;;;;5013857;28;20057;-45
2022/02/06 15:57:22;;;;;;;10.23;9.25;;;;;;;;;;5014502;28;20022;-44
2022/02/06 15:59:48;;;;;;;13.32;9.65;;;;;;;;;;5015166;28;20069;-45
2022/02/06 16:02:13;;;;;;;11.52;9.18;;;;;;;;;;5016254;28;20093;-44
2022/02/06 16:04:39;;;;;;;10.90;7.28;;;;;;;;;;5014258;28;20114;-45
2022/02/06 16:07:04;;;;;;;15.63;8.77;;;;;;;;;;5015916;28;20021;-47
2022/02/06 16:09:31;;;;;;;11.00;8.98;;;;;;;;;;5017721;28;20360;-42
2022/02/06 16:12:06;;;;;;;20.42;12.48;;;;;;;;;;5019481;28;20245;-45
2022/02/06 16:14:31;;;;;;;22.85;10.10;;;;;;;;;;5015149;28;20092;-41
2022/02/06 16:16:56;;;;;;;14.93;11.13;;;;;;;;;;5015676;28;20502;-44
2022/02/06 16:19:22;;;;;;;17.02;10.88;;;;;;;;;;5017352;28;20026;-42
2022/02/06 16:21:47;;;;;;;16.92;11.27;;;;;;;;;;5016657;28;20096;-42
2022/02/06 16:24:13;;;;;;;27.13;16.05;;;;;;;;;;5013664;28;20022;-47
2022/02/06 16:26:38;;;;;;;17.88;15.15;;;;;;;;;;5015610;28;20056;-43
2022/02/06 16:29:03;;;;;;;21.67;15.80;;;;;;;;;;5017008;28;20018;-45
2022/02/06 16:31:29;;;;;;;19.75;11.85;;;;;;;;;;5018027;28;20018;-43
2022/02/06 16:33:55;;;;;;;13.10;11.30;;;;;;;;;;5014730;28;20717;-41
2022/02/06 16:36:20;;;;;;;20.70;16.80;;;;;;;;;;5012941;28;20064;-43
2022/02/06 16:38:46;;;;;;;24.65;15.60;;;;;;;;;;5017979;28;20030;-45
2022/02/06 16:41:11;;;;;;;23.20;15.80;;;;;;;;;;5017401;28;20705;-45
2022/02/06 16:43:36;;;;;;;33.72;26.55;;;;;;;;;;5014902;28;20037;-46
2022/02/06 16:46:02;;;;;;;26.48;15.35;;;;;;;;;;5017050;28;20048;-40
2022/02/06 16:48:29;;;;;;;23.58;16.77;;;;;;;;;;5016797;28;20054;-42
2022/02/06 16:50:55;;;;;;;36.00;27.60;;;;;;;;;;5014187;28;20422;-43
2022/02/06 16:53:20;;;;;;;21.42;18.13;;;;;;;;;;5016706;28;20084;-43
2022/02/06 16:55:47;;;;;;;28.13;22.48;;;;;;;;;;5014497;28;20073;-41
2022/02/06 16:58:12;;;;;;;18.92;16.42;;;;;;;;;;5015768;28;20056;-42
2022/02/06 17:00:38;;;;;;;14.50;12.55;;;;;;;;;;5016023;28;20657;-43
2022/02/06 17:03:03;;;;;;;21.13;17.25;;;;;;;;;;5014301;28;20111;-43
2022/02/06 17:05:29;;;;;;;23.55;18.35;;;;;;;;;;5013462;28;20021;-45
2022/02/06 17:07:55;;;;;;;29.13;19.40;;;;;;;;;;5017458;28;20031;-44
2022/02/06 17:10:21;;;;;;;33.33;23.08;;;;;;;;;;5015400;28;20029;-45
2022/02/06 17:12:46;;;;;;;28.48;25.60;;;;;;;;;;5012095;28;20014;-42
2022/02/06 17:15:12;;;;;;;23.42;21.23;;;;;;;;;;5013480;28;20347;-42